地図

経路データ

SID SEASON NUMBER BASIN SUBBASIN NAME ISO_TIME NATURE LAT LON WMO_WIND WMO_PRES WMO_AGENCY TRACK_TYPE DIST2LAND LANDFALL IFLAG USA_AGENCY USA_ATCF_ID USA_LAT USA_LON USA_RECORD USA_STATUS USA_WIND USA_PRES USA_SSHS USA_R34_NE USA_R34_SE USA_R34_SW USA_R34_NW USA_R50_NE USA_R50_SE USA_R50_SW USA_R50_NW USA_R64_NE USA_R64_SE USA_R64_SW USA_R64_NW USA_POCI USA_ROCI USA_RMW USA_EYE TOKYO_LAT TOKYO_LON TOKYO_GRADE TOKYO_WIND TOKYO_PRES TOKYO_R50_DIR TOKYO_R50_LONG TOKYO_R50_SHORT TOKYO_R30_DIR TOKYO_R30_LONG TOKYO_R30_SHORT TOKYO_LAND CMA_LAT CMA_LON CMA_CAT CMA_WIND CMA_PRES HKO_LAT HKO_LON HKO_CAT HKO_WIND HKO_PRES NEWDELHI_LAT NEWDELHI_LON NEWDELHI_GRADE NEWDELHI_WIND NEWDELHI_PRES NEWDELHI_CI NEWDELHI_DP NEWDELHI_POCI REUNION_LAT REUNION_LON REUNION_TYPE REUNION_WIND REUNION_PRES REUNION_TNUM REUNION_CI REUNION_RMW REUNION_R34_NE REUNION_R34_SE REUNION_R34_SW REUNION_R34_NW REUNION_R50_NE REUNION_R50_SE REUNION_R50_SW REUNION_R50_NW REUNION_R64_NE REUNION_R64_SE REUNION_R64_SW REUNION_R64_NW BOM_LAT BOM_LON BOM_TYPE BOM_WIND BOM_PRES BOM_TNUM BOM_CI BOM_RMW BOM_R34_NE BOM_R34_SE BOM_R34_SW BOM_R34_NW BOM_R50_NE BOM_R50_SE BOM_R50_SW BOM_R50_NW BOM_R64_NE BOM_R64_SE BOM_R64_SW BOM_R64_NW BOM_ROCI BOM_POCI BOM_EYE BOM_POS_METHOD BOM_PRES_METHOD NADI_LAT NADI_LON NADI_CAT NADI_WIND NADI_PRES WELLINGTON_LAT WELLINGTON_LON WELLINGTON_WIND WELLINGTON_PRES DS824_LAT DS824_LON DS824_STAGE DS824_WIND DS824_PRES TD9636_LAT TD9636_LON TD9636_STAGE TD9636_WIND TD9636_PRES TD9635_LAT TD9635_LON TD9635_WIND TD9635_PRES TD9635_ROCI NEUMANN_LAT NEUMANN_LON NEUMANN_CLASS NEUMANN_WIND NEUMANN_PRES MLC_LAT MLC_LON MLC_CLASS MLC_WIND MLC_PRES USA_GUST BOM_GUST BOM_GUST_PER REUNION_GUST REUNION_GUST_PER USA_SEAHGT USA_SEARAD_NE USA_SEARAD_SE USA_SEARAD_SW USA_SEARAD_NW STORM_SPEED STORM_DIR
1996211N13270 1996 60 EP MM DOUGLAS 1996-07-29 00:00:00 TS 13.0000 -89.7000 35 1004 hurdat_epa main 55 55 O_____________ hurdat_epa EP071996 13.0000 -89.7000 TS 35 1004 0 19 272
1996211N13270 1996 60 EP MM DOUGLAS 1996-07-29 03:00:00 TS 13.0383 -90.6601 main 100 89 P_____________ EP071996 13.0383 -90.6601 TS 37 1002 0 19 273
1996211N13270 1996 60 EP MM DOUGLAS 1996-07-29 06:00:00 TS 13.1000 -91.6000 40 1001 hurdat_epa main 95 95 O_____________ hurdat_epa EP071996 13.1000 -91.6000 TS 40 1001 0 18 275
1996211N13270 1996 60 EP MM DOUGLAS 1996-07-29 09:00:00 TS 13.1996 -92.5074 main 135 135 P_____________ EP071996 13.1996 -92.5074 TS 52 994 0 18 277
1996211N13270 1996 60 EP MM DOUGLAS 1996-07-29 12:00:00 TS 13.3000 -93.4000 65 987 hurdat_epa main 186 186 O_____________ hurdat_epa EP071996 13.3000 -93.4000 HU 65 987 1 18 275
1996211N13270 1996 60 EP MM DOUGLAS 1996-07-29 15:00:00 TS 13.3498 -94.3077 main 256 256 P_____________ EP071996 13.3498 -94.3077 HU 65 984 1 18 273
1996211N13270 1996 60 EP MM DOUGLAS 1996-07-29 18:00:00 TS 13.4000 -95.2000 65 982 hurdat_epa main 279 243 O_____________ hurdat_epa EP071996 13.4000 -95.2000 HU 65 982 1 17 275
1996211N13270 1996 60 EP MM DOUGLAS 1996-07-29 21:00:00 TS 13.4846 -96.0501 main 241 223 P_____________ EP071996 13.4846 -96.0501 HU 67 981 1 17 277
1996211N13270 1996 60 EP MM DOUGLAS 1996-07-30 00:00:00 TS 13.6000 -96.9000 70 980 hurdat_epa main 226 225 O_____________ hurdat_epa EP071996 13.6000 -96.9000 HU 70 980 1 17 278
1996211N13270 1996 60 EP MM DOUGLAS 1996-07-30 03:00:00 TS 13.7348 -97.8001 main 248 243 P_____________ EP071996 13.7348 -97.8001 HU 72 978 1 18 280
1996211N13270 1996 60 EP MM DOUGLAS 1996-07-30 06:00:00 TS 13.9000 -98.7000 75 977 hurdat_epa main 254 254 O_____________ hurdat_epa EP071996 13.9000 -98.7000 HU 75 977 1 17 281
1996211N13270 1996 60 EP MM DOUGLAS 1996-07-30 09:00:00 TS 14.0772 -99.5652 main 268 268 P_____________ EP071996 14.0772 -99.5652 HU 77 976 1 17 284
1996211N13270 1996 60 EP MM DOUGLAS 1996-07-30 12:00:00 TS 14.3000 -100.400 80 975 hurdat_epa main 278 274 O_____________ hurdat_epa EP071996 14.3000 -100.400 HU 80 975 1 17 288
1996211N13270 1996 60 EP MM DOUGLAS 1996-07-30 15:00:00 TS 14.5848 -101.223 main 284 281 P_____________ EP071996 14.5848 -101.223 HU 82 972 1 17 291
1996211N13270 1996 60 EP MM DOUGLAS 1996-07-30 18:00:00 TS 14.9000 -102.000 85 970 hurdat_epa main 285 278 O_____________ hurdat_epa EP071996 14.9000 -102.000 HU 85 970 2 16 293
1996211N13270 1996 60 EP MM DOUGLAS 1996-07-30 21:00:00 TS 15.2072 -102.723 main 290 288 P_____________ EP071996 15.2072 -102.723 HU 87 969 2 15 294
1996211N13270 1996 60 EP MM DOUGLAS 1996-07-31 00:00:00 TS 15.5000 -103.400 90 968 hurdat_epa main 292 285 O_____________ hurdat_epa EP071996 15.5000 -103.400 HU 90 968 2 14 293
1996211N13270 1996 60 EP MM DOUGLAS 1996-07-31 03:00:00 TS 15.7573 -104.065 main 285 281 P_____________ EP071996 15.7573 -104.065 HU 92 966 2 13 292
1996211N13270 1996 60 EP MM DOUGLAS 1996-07-31 06:00:00 TS 16.0000 -104.700 95 965 hurdat_epa main 287 282 O_____________ hurdat_epa EP071996 16.0000 -104.700 HU 95 965 2 13 292
1996211N13270 1996 60 EP MM DOUGLAS 1996-07-31 09:00:00 TS 16.2498 -105.315 main 302 294 P_____________ EP071996 16.2498 -105.315 HU 97 962 3 13 293
1996211N13270 1996 60 EP MM DOUGLAS 1996-07-31 12:00:00 TS 16.5000 -105.900 100 960 hurdat_epa main 323 317 O_____________ hurdat_epa EP071996 16.5000 -105.900 HU 100 960 3 12 294
1996211N13270 1996 60 EP MM DOUGLAS 1996-07-31 15:00:00 TS 16.7423 -106.465 main 332 323 P_____________ EP071996 16.7423 -106.465 HU 102 959 3 12 295
1996211N13270 1996 60 EP MM DOUGLAS 1996-07-31 18:00:00 TS 17.0000 -107.000 105 958 hurdat_epa main 338 338 O_____________ hurdat_epa EP071996 17.0000 -107.000 HU 105 958 3 11 299
1996211N13270 1996 60 EP MM DOUGLAS 1996-07-31 21:00:00 TS 17.2923 -107.508 main 353 353 P_____________ EP071996 17.2923 -107.508 HU 110 955 3 11 302
1996211N13270 1996 60 EP MM DOUGLAS 1996-08-01 00:00:00 TS 17.6000 -108.000 115 952 hurdat_epa main 368 368 O_____________ hurdat_epa EP071996 17.6000 -108.000 HU 115 952 4 11 302
1996211N13270 1996 60 EP MM DOUGLAS 1996-08-01 03:00:00 TS 17.8924 -108.500 main 392 392 P_____________ EP071996 17.8924 -108.500 HU 115 950 4 11 302
1996211N13270 1996 60 EP MM DOUGLAS 1996-08-01 06:00:00 TS 18.2000 -109.000 115 948 hurdat_epa main 419 419 O_____________ hurdat_epa EP071996 18.2000 -109.000 HU 115 948 4 11 305
1996211N13270 1996 60 EP MM DOUGLAS 1996-08-01 09:00:00 TS 18.5497 -109.485 main 451 446 P_____________ EP071996 18.5497 -109.485 HU 115 947 4 12 306
1996211N13270 1996 60 EP MM DOUGLAS 1996-08-01 12:00:00 TS 18.9000 -110.000 115 946 hurdat_epa main 447 416 O_____________ hurdat_epa EP071996 18.9000 -110.000 HU 115 946 4 12 303
1996211N13270 1996 60 EP MM DOUGLAS 1996-08-01 15:00:00 TS 19.2148 -110.570 main 418 396 P_____________ EP071996 19.2148 -110.570 HU 115 946 4 13 298
1996211N13270 1996 60 EP MM DOUGLAS 1996-08-01 18:00:00 TS 19.5000 -111.200 115 947 hurdat_epa main 400 392 O_____________ hurdat_epa EP071996 19.5000 -111.200 HU 115 947 4 14 294
1996211N13270 1996 60 EP MM DOUGLAS 1996-08-01 21:00:00 TS 19.7650 -111.893 main 398 398 P_____________ EP071996 19.7650 -111.893 HU 115 947 4 14 291
1996211N13270 1996 60 EP MM DOUGLAS 1996-08-02 00:00:00 TS 20.0000 -112.600 115 948 hurdat_epa main 421 419 O_____________ hurdat_epa EP071996 20.0000 -112.600 HU 115 948 4 14 290
1996211N13270 1996 60 EP MM DOUGLAS 1996-08-02 03:00:00 TS 20.2220 -113.243 main 447 447 P_____________ EP071996 20.2220 -113.243 HU 115 949 4 13 288
1996211N13270 1996 60 EP MM DOUGLAS 1996-08-02 06:00:00 TS 20.4000 -113.900 115 950 hurdat_epa main 490 490 O_____________ hurdat_epa EP071996 20.4000 -113.900 HU 115 950 4 13 283
1996211N13270 1996 60 EP MM DOUGLAS 1996-08-02 09:00:00 TS 20.5150 -114.643 main 531 531 P_____________ EP071996 20.5150 -114.643 HU 112 952 3 14 278
1996211N13270 1996 60 EP MM DOUGLAS 1996-08-02 12:00:00 TS 20.6000 -115.400 110 955 hurdat_epa main 569 569 O_____________ hurdat_epa EP071996 20.6000 -115.400 HU 110 955 3 14 278
1996211N13270 1996 60 EP MM DOUGLAS 1996-08-02 15:00:00 TS 20.7072 -116.115 main 606 606 P_____________ EP071996 20.7072 -116.115 HU 105 960 3 13 279
1996211N13270 1996 60 EP MM DOUGLAS 1996-08-02 18:00:00 TS 20.8000 -116.800 100 965 hurdat_epa main 649 649 O_____________ hurdat_epa EP071996 20.8000 -116.800 HU 100 965 3 13 276
1996211N13270 1996 60 EP MM DOUGLAS 1996-08-02 21:00:00 TS 20.8497 -117.465 main 703 696 P_____________ EP071996 20.8497 -117.465 HU 90 967 2 12 275
1996211N13270 1996 60 EP MM DOUGLAS 1996-08-03 00:00:00 TS 20.9000 -118.100 80 970 hurdat_epa main 744 744 O_____________ hurdat_epa EP071996 20.9000 -118.100 HU 80 970 1 12 278
1996211N13270 1996 60 EP MM DOUGLAS 1996-08-03 03:00:00 TS 21.0074 -118.722 main 789 789 P_____________ EP071996 21.0074 -118.722 HU 72 972 1 11 280
1996211N13270 1996 60 EP MM DOUGLAS 1996-08-03 06:00:00 TS 21.1000 -119.300 65 975 hurdat_epa main 835 835 O_____________ hurdat_epa EP071996 21.1000 -119.300 HU 65 975 1 10 276
1996211N13270 1996 60 EP MM DOUGLAS 1996-08-03 09:00:00 TS 21.1072 -119.815 main 874 874 P_____________ EP071996 21.1072 -119.815 HU 62 977 0 9 270
1996211N13270 1996 60 EP MM DOUGLAS 1996-08-03 12:00:00 TS 21.1000 -120.300 60 980 hurdat_epa main 906 906 O_____________ hurdat_epa EP071996 21.1000 -120.300 TS 60 980 0 9 272
1996211N13270 1996 60 EP MM DOUGLAS 1996-08-03 15:00:00 TS 21.1349 -120.800 main 940 940 P_____________ EP071996 21.1349 -120.800 TS 57 984 0 9 276
1996211N13270 1996 60 EP MM DOUGLAS 1996-08-03 18:00:00 TS 21.2000 -121.300 55 988 hurdat_epa main 965 965 O_____________ hurdat_epa EP071996 21.2000 -121.300 TS 55 988 0 10 280
1996211N13270 1996 60 EP MM DOUGLAS 1996-08-03 21:00:00 TS 21.2924 -121.807 main 991 991 P_____________ EP071996 21.2924 -121.807 TS 52 990 0 10 282
1996211N13270 1996 60 EP MM DOUGLAS 1996-08-04 00:00:00 TS 21.4000 -122.300 50 993 hurdat_epa main 1019 1019 O_____________ hurdat_epa EP071996 21.4000 -122.300 TS 50 993 0 9 284
1996211N13270 1996 60 EP MM DOUGLAS 1996-08-04 03:00:00 TS 21.5073 -122.750 main 1048 1048 P_____________ EP071996 21.5073 -122.750 TS 47 994 0 9 283
1996211N13270 1996 60 EP MM DOUGLAS 1996-08-04 06:00:00 TS 21.6000 -123.200 45 995 hurdat_epa main 1072 1072 O_____________ hurdat_epa EP071996 21.6000 -123.200 TS 45 995 0 9 279
1996211N13270 1996 60 EP MM DOUGLAS 1996-08-04 09:00:00 TS 21.6498 -123.685 main 1111 1104 P_____________ EP071996 21.6498 -123.685 TS 42 997 0 9 276
1996211N13270 1996 60 EP MM DOUGLAS 1996-08-04 12:00:00 TS 21.7000 -124.200 40 1000 hurdat_epa main 1144 1144 O_____________ hurdat_epa EP071996 21.7000 -124.200 TS 40 1000 0 10 278
1996211N13270 1996 60 EP MM DOUGLAS 1996-08-04 15:00:00 TS 21.7924 -124.742 main 1179 1179 P_____________ EP071996 21.7924 -124.742 TS 37 1001 0 10 281
1996211N13270 1996 60 EP MM DOUGLAS 1996-08-04 18:00:00 TS 21.9000 -125.300 35 1003 hurdat_epa main 1223 1223 O_____________ hurdat_epa EP071996 21.9000 -125.300 TS 35 1003 0 10 281
1996211N13270 1996 60 EP MM DOUGLAS 1996-08-04 21:00:00 TS 21.9998 -125.850 main 1269 1269 P_____________ EP071996 21.9998 -125.850 TS 32 1004 -1 10 281
1996211N13270 1996 60 EP MM DOUGLAS 1996-08-05 00:00:00 TS 22.1000 -126.400 30 1005 hurdat_epa main 1307 1307 O_____________ hurdat_epa EP071996 22.1000 -126.400 TD 30 1005 -1 10 282
1996211N13270 1996 60 EP MM DOUGLAS 1996-08-05 03:00:00 TS 22.2072 -126.943 main 1346 1346 P_____________ EP071996 22.2072 -126.943 TD 30 1007 -1 10 281
1996211N13270 1996 60 EP MM DOUGLAS 1996-08-05 06:00:00 TS 22.3000 -127.500 30 1009 hurdat_epa main 1394 1394 O_____________ hurdat_epa EP071996 22.3000 -127.500 TD 30 1009 -1 11 278
1996211N13270 1996 60 EP MM DOUGLAS 1996-08-05 09:00:00 TS 22.3574 -128.093 main 1444 1444 P_____________ EP071996 22.3574 -128.093 TD 30 1009 -1 11 275
1996211N13270 1996 60 EP MM DOUGLAS 1996-08-05 12:00:00 TS 22.4000 -128.700 30 1009 hurdat_epa main 1499 1499 O_____________ hurdat_epa EP071996 22.4000 -128.700 TD 30 1009 -1 12 275
1996211N13270 1996 60 EP MM DOUGLAS 1996-08-05 15:00:00 TS 22.4579 -129.382 main 1559 1559 P_____________ EP071996 22.4579 -129.382 TD 27 1009 -1 11 275
1996211N13270 1996 60 EP MM DOUGLAS 1996-08-05 18:00:00 TS 22.5000 -129.900 25 1009 hurdat_epa main 1606 1606 O_____________ hurdat_epa EP071996 22.5000 -129.900 TD 25 1009 -1 6 275
1996211N13270 1996 60 EP MM DOUGLAS 1996-08-05 21:00:00 TS 22.5097 -130.060 main 1623 1615 P_____________ EP071996 22.5097 -130.060 TD 22 1009 -1 1 270
1996211N13270 1996 60 EP MM DOUGLAS 1996-08-06 00:00:00 TS 22.5000 -130.000 20 1009 hurdat_epa main 1615 O_____________ hurdat_epa EP071996 22.5000 -130.000 TD 20 1009 -1 1 100

IBTrACS Databaseについて

本データベースは、米国NOAAが公開する1842年以降の世界の熱帯低気圧のベストトラックデータアーカイブInternational Best Track Archive for Climate Stewardship (IBTrACS)を、ウェブで閲覧しやすい形式に変換したものです。

最終更新日:2021-10-08